Meishomaru — JD3044 — position and weather

sailwx.info

Track history (hours):
 
Tides and Currents Weather Stations Pressure Air Temp Water Temp Dewpoint Dewpoint Depression Visibility Wind Speed Wind Dir Waves Ship Positions

Meishomaru

Last reported at 2016-May-25 08:34 UTC. Time now 2016-May-25 09:08 UTC.
Position N 34°33' E 135°25'.

Length 68 m; draft 3.7 m.

Type: Tanker. MMSI: 431001216.

Date/timePositionNaut miles runAvg speedWind from/ knotsBaromVisibWave heightAir tempDewpointWater temp
2016-May-25 08:34N 34°33' E 135°25'0 0.0
2016-May-25 00:33N 34°33' E 135°25'3 2.5
2016-May-24 23:26N 34°32' E 135°22'0 0.0
2016-May-24 22:32N 34°32' E 135°22'0 0.0
2016-May-24 21:14N 34°32' E 135°22'0 0.0
2016-May-24 20:14N 34°32' E 135°22'0 0.1
2016-May-24 19:14N 34°33' E 135°22'0 0.0
2016-May-24 17:20N 34°33' E 135°22'0 0.0
2016-May-24 13:32N 34°33' E 135°22'0 0.0
2016-May-24 12:20N 34°33' E 135°22'0 0.0
2016-May-24 11:32N 34°33' E 135°22'0 0.0
2016-May-24 10:32N 34°32' E 135°22'6 6.2
2016-May-24 09:32N 34°29' E 135°16'1212.1
2016-May-24 08:33N 34°22' E 135°04'1010.1
2016-May-24 07:33N 34°12' E 135°00'209 9.4
2016-May-23 09:23N 34°51' E 139°09'3211.3
2016-May-23 06:32N 35°08' E 139°42'1010.0
2016-May-23 05:33N 35°18' E 139°44'9 9.5
2016-May-23 04:33N 35°27' E 139°47'1211.5
2016-May-23 03:33N 35°31' E 140°01'2 1.5
2016-May-23 02:33N 35°31' E 140°02'0 0.0
2016-May-23 01:33N 35°31' E 140°02'0 0.0
2016-May-23 00:33N 35°31' E 140°02'0 0.0
2016-May-22 23:33N 35°31' E 140°02'6 6.0
2016-May-22 22:33N 35°33' E 139°56'0 0.4
2016-May-22 21:31N 35°33' E 139°55'0 0.0
2016-May-22 20:31N 35°33' E 139°55'0 0.0
2016-May-22 19:31N 35°33' E 139°55'0 0.0
2016-May-22 18:31N 35°33' E 139°55'0 0.0
2016-May-22 17:31N 35°33' E 139°55'0 0.0
2016-May-22 16:31N 35°33' E 139°55'0 0.0
2016-May-22 15:31N 35°33' E 139°55'0 0.0
2016-May-22 14:31N 35°33' E 139°55'0 0.0
2016-May-22 13:31N 35°33' E 139°55'0 0.0
2016-May-22 12:31N 35°33' E 139°55'0 0.0
2016-May-22 11:31N 35°33' E 139°55'0 0.0
2016-May-22 10:28N 35°33' E 139°55'0 0.0
2016-May-22 09:25N 35°33' E 139°55'0 0.0
2016-May-22 08:31N 35°33' E 139°55'0 0.0
2016-May-22 07:22N 35°33' E 139°55'0 0.0
2016-May-22 06:28N 35°33' E 139°55'0 0.0
2016-May-22 05:31N 35°33' E 139°55'0 0.0
2016-May-22 04:31N 35°33' E 139°55'0 0.0
2016-May-22 03:28N 35°33' E 139°55'0 0.0
2016-May-22 02:22N 35°33' E 139°55'0 0.0
2016-May-22 01:25N 35°33' E 139°55'0 0.0
2016-May-22 00:31N 35°33' E 139°55'0 0.0
2016-May-21 23:25N 35°33' E 139°55'0 0.0
2016-May-21 22:04N 35°33' E 139°55'0 0.0
2016-May-21 21:28N 35°33' E 139°55'0 0.1
2016-May-21 20:31N 35°33' E 139°55'0 0.0
2016-May-21 19:31N 35°33' E 139°55'0 0.0
2016-May-21 18:31N 35°33' E 139°55'0 0.0
2016-May-21 17:31N 35°33' E 139°55'0 0.0
2016-May-21 16:28N 35°33' E 139°55'0 0.0
2016-May-21 15:31N 35°33' E 139°55'0 0.0
2016-May-21 14:31N 35°33' E 139°55'0 0.0
2016-May-21 13:31N 35°33' E 139°55'0 0.0
2016-May-21 12:25N 35°33' E 139°55'0 0.0
2016-May-21 11:31N 35°33' E 139°55'0 0.0
2016-May-21 10:31N 35°33' E 139°55'0 0.0
2016-May-21 09:31N 35°33' E 139°55'0 0.0
2016-May-21 08:31N 35°33' E 139°55'0 0.0
2016-May-21 07:31N 35°33' E 139°55'0 0.0
2016-May-21 06:31N 35°33' E 139°55'0 0.0
2016-May-21 05:31N 35°33' E 139°55'0 0.0
2016-May-21 04:28N 35°33' E 139°55'0 0.0
2016-May-21 03:28N 35°33' E 139°55'0 0.0
2016-May-21 02:33N 35°33' E 139°55'6 6.4
2016-May-21 01:33N 35°30' E 139°48'3 3.1
2016-May-21 00:28N 35°31' E 139°45'0 0.0
2016-May-20 23:22N 35°31' E 139°45'0 0.2
2016-May-20 22:33N 35°31' E 139°45'4 3.7
2016-May-20 21:31N 35°29' E 139°49'0 0.0
2016-May-20 20:31N 35°29' E 139°49'0 0.0
2016-May-20 19:31N 35°29' E 139°49'0 0.0
2016-May-20 18:31N 35°29' E 139°49'0 0.0
2016-May-20 17:31N 35°29' E 139°49'0 0.0
2016-May-20 16:31N 35°29' E 139°49'0 0.0
2016-May-20 15:31N 35°29' E 139°49'0 0.0
2016-May-20 14:31N 35°29' E 139°49'0 0.0
2016-May-20 13:31N 35°29' E 139°49'0 0.0
2016-May-20 12:31N 35°29' E 139°49'0 0.0
2016-May-20 11:31N 35°29' E 139°49'0 0.0
2016-May-20 10:31N 35°29' E 139°49'0 0.0
2016-May-20 09:31N 35°29' E 139°49'0 0.0
2016-May-20 08:31N 35°29' E 139°49'0 0.0
2016-May-20 07:31N 35°29' E 139°49'7 7.1
2016-May-20 06:34N 35°25' E 139°43'3 2.8
2016-May-20 05:24N 35°25' E 139°39'0 0.0
2016-May-20 04:33N 35°25' E 139°39'0 0.0
2016-May-20 03:33N 35°25' E 139°39'0 0.0
2016-May-20 02:31N 35°25' E 139°39'5 5.6
2016-May-20 01:33N 35°29' E 139°43'3 2.7
2016-May-20 00:31N 35°31' E 139°45'0 0.0
2016-May-19 23:28N 35°31' E 139°45'0 0.4
2016-May-19 22:33N 35°31' E 139°45'4 3.4
2016-May-19 21:31N 35°29' E 139°49'0 0.0
2016-May-19 20:31N 35°29' E 139°49'0 0.0
2016-May-19 19:31N 35°29' E 139°49'0 0.0
2016-May-19 18:31N 35°29' E 139°49'0 0.0
2016-May-19 17:31N 35°29' E 139°49'0 0.0
2016-May-19 16:31N 35°29' E 139°49'0 0.0
2016-May-19 15:31N 35°29' E 139°49'0 0.0
2016-May-19 14:31N 35°29' E 139°49'0 0.0
2016-May-19 13:31N 35°29' E 139°49'0 0.0
2016-May-19 12:31N 35°29' E 139°49'0 0.0
2016-May-19 11:31N 35°29' E 139°49'0 0.0
2016-May-19 10:31N 35°29' E 139°49'0 0.0
2016-May-19 09:31N 35°29' E 139°49'0 0.0
2016-May-19 08:31N 35°29' E 139°49'0 0.0
2016-May-19 07:31N 35°29' E 139°49'6 6.2
2016-May-19 06:33N 35°25' E 139°43'4 3.6
2016-May-19 05:31N 35°25' E 139°39'0 0.0
2016-May-19 04:31N 35°25' E 139°39'0 0.0
2016-May-19 03:31N 35°25' E 139°39'0 0.0
2016-May-19 02:31N 35°25' E 139°39'2 2.1
2016-May-19 01:33N 35°23' E 139°40'0 0.3
2016-May-19 00:31N 35°23' E 139°40'0 0.0
2016-May-18 23:31N 35°23' E 139°40'0 0.0
2016-May-18 22:31N 35°23' E 139°40'0 0.0
2016-May-18 21:31N 35°23' E 139°40'0 0.0
2016-May-18 20:31N 35°23' E 139°40'0 0.0
2016-May-18 19:31N 35°23' E 139°40'0 0.0
2016-May-18 18:31N 35°23' E 139°40'0 0.0
2016-May-18 17:31N 35°23' E 139°40'0 0.0
2016-May-18 16:31N 35°23' E 139°40'0 0.0
2016-May-18 15:31N 35°23' E 139°40'0 0.0
2016-May-18 14:31N 35°23' E 139°40'0 0.0
2016-May-18 13:33N 35°23' E 139°40'1110.5
2016-May-18 12:33N 35°14' E 139°47'1111.1
2016-May-18 11:33N 35°03' E 139°41'  
Track history (hours):
 
Tides and Currents Weather Stations Pressure Air Temp Water Temp Dewpoint Dewpoint Depression Visibility Wind Speed Wind Dir Waves Ship Positions

Meishomaru

Last reported at 2016-May-25 08:34 UTC. Time now 2016-May-25 09:08 UTC.
Position N 34°33' E 135°25'.

Length 68 m; draft 3.7 m.

Type: Tanker. MMSI: 431001216.

Date/timePositionNaut miles runAvg speedWind from/ knotsBaromVisibWave heightAir tempDewpointWater temp
2016-May-25 08:34N 34°33' E 135°25'0 0.0
2016-May-25 00:33N 34°33' E 135°25'3 2.5
2016-May-24 23:26N 34°32' E 135°22'0 0.0
2016-May-24 22:32N 34°32' E 135°22'0 0.0
2016-May-24 21:14N 34°32' E 135°22'0 0.0
2016-May-24 20:14N 34°32' E 135°22'0 0.1
2016-May-24 19:14N 34°33' E 135°22'0 0.0
2016-May-24 17:20N 34°33' E 135°22'0 0.0
2016-May-24 13:32N 34°33' E 135°22'0 0.0
2016-May-24 12:20N 34°33' E 135°22'0 0.0
2016-May-24 11:32N 34°33' E 135°22'0 0.0
2016-May-24 10:32N 34°32' E 135°22'6 6.2
2016-May-24 09:32N 34°29' E 135°16'1212.1
2016-May-24 08:33N 34°22' E 135°04'1010.1
2016-May-24 07:33N 34°12' E 135°00'209 9.4
2016-May-23 09:23N 34°51' E 139°09'3211.3
2016-May-23 06:32N 35°08' E 139°42'1010.0
2016-May-23 05:33N 35°18' E 139°44'9 9.5
2016-May-23 04:33N 35°27' E 139°47'1211.5
2016-May-23 03:33N 35°31' E 140°01'2 1.5
2016-May-23 02:33N 35°31' E 140°02'0 0.0
2016-May-23 01:33N 35°31' E 140°02'0 0.0
2016-May-23 00:33N 35°31' E 140°02'0 0.0
2016-May-22 23:33N 35°31' E 140°02'6 6.0
2016-May-22 22:33N 35°33' E 139°56'0 0.4
2016-May-22 21:31N 35°33' E 139°55'0 0.0
2016-May-22 20:31N 35°33' E 139°55'0 0.0
2016-May-22 19:31N 35°33' E 139°55'0 0.0
2016-May-22 18:31N 35°33' E 139°55'0 0.0
2016-May-22 17:31N 35°33' E 139°55'0 0.0
2016-May-22 16:31N 35°33' E 139°55'0 0.0
2016-May-22 15:31N 35°33' E 139°55'0 0.0
2016-May-22 14:31N 35°33' E 139°55'0 0.0
2016-May-22 13:31N 35°33' E 139°55'0 0.0
2016-May-22 12:31N 35°33' E 139°55'0 0.0
2016-May-22 11:31N 35°33' E 139°55'0 0.0
2016-May-22 10:28N 35°33' E 139°55'0 0.0
2016-May-22 09:25N 35°33' E 139°55'0 0.0
2016-May-22 08:31N 35°33' E 139°55'0 0.0
2016-May-22 07:22N 35°33' E 139°55'0 0.0
2016-May-22 06:28N 35°33' E 139°55'0 0.0
2016-May-22 05:31N 35°33' E 139°55'0 0.0
2016-May-22 04:31N 35°33' E 139°55'0 0.0
2016-May-22 03:28N 35°33' E 139°55'0 0.0
2016-May-22 02:22N 35°33' E 139°55'0 0.0
2016-May-22 01:25N 35°33' E 139°55'0 0.0
2016-May-22 00:31N 35°33' E 139°55'0 0.0
2016-May-21 23:25N 35°33' E 139°55'0 0.0
2016-May-21 22:04N 35°33' E 139°55'0 0.0
2016-May-21 21:28N 35°33' E 139°55'0 0.1
2016-May-21 20:31N 35°33' E 139°55'0 0.0
2016-May-21 19:31N 35°33' E 139°55'0 0.0
2016-May-21 18:31N 35°33' E 139°55'0 0.0
2016-May-21 17:31N 35°33' E 139°55'0 0.0
2016-May-21 16:28N 35°33' E 139°55'0 0.0
2016-May-21 15:31N 35°33' E 139°55'0 0.0
2016-May-21 14:31N 35°33' E 139°55'0 0.0
2016-May-21 13:31N 35°33' E 139°55'0 0.0
2016-May-21 12:25N 35°33' E 139°55'0 0.0
2016-May-21 11:31N 35°33' E 139°55'0 0.0
2016-May-21 10:31N 35°33' E 139°55'0 0.0
2016-May-21 09:31N 35°33' E 139°55'0 0.0
2016-May-21 08:31N 35°33' E 139°55'0 0.0
2016-May-21 07:31N 35°33' E 139°55'0 0.0
2016-May-21 06:31N 35°33' E 139°55'0 0.0
2016-May-21 05:31N 35°33' E 139°55'0 0.0
2016-May-21 04:28N 35°33' E 139°55'0 0.0
2016-May-21 03:28N 35°33' E 139°55'0 0.0
2016-May-21 02:33N 35°33' E 139°55'6 6.4
2016-May-21 01:33N 35°30' E 139°48'3 3.1
2016-May-21 00:28N 35°31' E 139°45'0 0.0
2016-May-20 23:22N 35°31' E 139°45'0 0.2
2016-May-20 22:33N 35°31' E 139°45'4 3.7
2016-May-20 21:31N 35°29' E 139°49'0 0.0
2016-May-20 20:31N 35°29' E 139°49'0 0.0
2016-May-20 19:31N 35°29' E 139°49'0 0.0
2016-May-20 18:31N 35°29' E 139°49'0 0.0
2016-May-20 17:31N 35°29' E 139°49'0 0.0
2016-May-20 16:31N 35°29' E 139°49'0 0.0
2016-May-20 15:31N 35°29' E 139°49'0 0.0
2016-May-20 14:31N 35°29' E 139°49'0 0.0
2016-May-20 13:31N 35°29' E 139°49'0 0.0
2016-May-20 12:31N 35°29' E 139°49'0 0.0
2016-May-20 11:31N 35°29' E 139°49'0 0.0
2016-May-20 10:31N 35°29' E 139°49'0 0.0
2016-May-20 09:31N 35°29' E 139°49'0 0.0
2016-May-20 08:31N 35°29' E 139°49'0 0.0
2016-May-20 07:31N 35°29' E 139°49'7 7.1
2016-May-20 06:34N 35°25' E 139°43'3 2.8
2016-May-20 05:24N 35°25' E 139°39'0 0.0
2016-May-20 04:33N 35°25' E 139°39'0 0.0
2016-May-20 03:33N 35°25' E 139°39'0 0.0
2016-May-20 02:31N 35°25' E 139°39'5 5.6
2016-May-20 01:33N 35°29' E 139°43'3 2.7
2016-May-20 00:31N 35°31' E 139°45'0 0.0
2016-May-19 23:28N 35°31' E 139°45'0 0.4
2016-May-19 22:33N 35°31' E 139°45'4 3.4
2016-May-19 21:31N 35°29' E 139°49'0 0.0
2016-May-19 20:31N 35°29' E 139°49'0 0.0
2016-May-19 19:31N 35°29' E 139°49'0 0.0
2016-May-19 18:31N 35°29' E 139°49'0 0.0
2016-May-19 17:31N 35°29' E 139°49'0 0.0
2016-May-19 16:31N 35°29' E 139°49'0 0.0
2016-May-19 15:31N 35°29' E 139°49'0 0.0
2016-May-19 14:31N 35°29' E 139°49'0 0.0
2016-May-19 13:31N 35°29' E 139°49'0 0.0
2016-May-19 12:31N 35°29' E 139°49'0 0.0
2016-May-19 11:31N 35°29' E 139°49'0 0.0
2016-May-19 10:31N 35°29' E 139°49'0 0.0
2016-May-19 09:31N 35°29' E 139°49'0 0.0
2016-May-19 08:31N 35°29' E 139°49'0 0.0
2016-May-19 07:31N 35°29' E 139°49'6 6.2
2016-May-19 06:33N 35°25' E 139°43'4 3.6
2016-May-19 05:31N 35°25' E 139°39'0 0.0
2016-May-19 04:31N 35°25' E 139°39'0 0.0
2016-May-19 03:31N 35°25' E 139°39'0 0.0
2016-May-19 02:31N 35°25' E 139°39'2 2.1
2016-May-19 01:33N 35°23' E 139°40'0 0.3
2016-May-19 00:31N 35°23' E 139°40'0 0.0
2016-May-18 23:31N 35°23' E 139°40'0 0.0
2016-May-18 22:31N 35°23' E 139°40'0 0.0
2016-May-18 21:31N 35°23' E 139°40'0 0.0
2016-May-18 20:31N 35°23' E 139°40'0 0.0
2016-May-18 19:31N 35°23' E 139°40'0 0.0
2016-May-18 18:31N 35°23' E 139°40'0 0.0
2016-May-18 17:31N 35°23' E 139°40'0 0.0
2016-May-18 16:31N 35°23' E 139°40'0 0.0
2016-May-18 15:31N 35°23' E 139°40'0 0.0
2016-May-18 14:31N 35°23' E 139°40'0 0.0
2016-May-18 13:33N 35°23' E 139°40'1110.5
2016-May-18 12:33N 35°14' E 139°47'1111.1
2016-May-18 11:33N 35°03' E 139°41'  

Dump ship's entire track history